Time;durP1;ratioP1;P1;durP2;ratioP2;P2;SDS_P1;SDS_P2;PMS_P1;PMS_P2;Temp;Humidity;BMP_temperature;BMP_pressure;BME280_temperature;BME280_humidity;BME280_pressure;Samples;Min_cycle;Max_cycle;Signal;HPM_P1;HPM_P2
2023/11/26 00:00:29;;;;;;;;;34.67;30.00;;;;;;;;5096929;27;45314;-71
2023/11/26 00:02:54;;;;;;;;;38.33;26.33;;;;;;;;5094331;27;46367;-73
2023/11/26 00:05:19;;;;;;;;;28.00;26.33;;;;;;;;5096381;27;45568;-68
2023/11/26 00:07:45;;;;;;;;;40.00;29.67;;;;;;;;5096740;27;45420;-72
2023/11/26 00:10:10;;;;;;;;;32.00;25.75;;;;;;;;5095377;27;45656;-70
2023/11/26 00:12:35;;;;;;;;;29.75;23.50;;;;;;;;5095276;27;45423;-68
2023/11/26 00:15:00;;;;;;;;;33.00;22.33;;;;;;;;5092184;27;45517;-70
2023/11/26 00:17:25;;;;;;;;;29.33;26.00;;;;;;;;5085029;27;45279;-69
2023/11/26 00:19:51;;;;;;;;;31.25;26.75;;;;;;;;5092807;27;45544;-69
2023/11/26 00:22:16;;;;;;;;;31.75;22.00;;;;;;;;5086981;27;46327;-71
2023/11/26 00:24:41;;;;;;;;;27.00;25.33;;;;;;;;5093603;27;45188;-70
2023/11/26 00:27:07;;;;;;;;;25.75;21.25;;;;;;;;5091660;27;45435;-71
2023/11/26 00:29:40;;;;;;;;;30.50;27.00;;;;;;;;5088866;27;45443;-69
2023/11/26 00:32:05;;;;;;;;;2.00;2.00;;;;;;;;5095487;27;46601;-71
2023/11/26 00:34:30;;;;;;;;;24.50;18.25;;;;;;;;5096546;27;45348;-70
2023/11/26 00:36:56;;;;;;;;;23.67;20.67;;;;;;;;5087797;27;45223;-72
2023/11/26 00:39:21;;;;;;;;;27.67;23.67;;;;;;;;5097405;27;45623;-69
2023/11/26 00:41:46;;;;;;;;;29.33;20.33;;;;;;;;5093849;27;46330;-71
2023/11/26 00:44:11;;;;;;;;;22.67;20.00;;;;;;;;5094693;27;45163;-72
2023/11/26 00:46:36;;;;;;;;;29.00;23.67;;;;;;;;5088448;27;45676;-69
2023/11/26 00:49:05;;;;;;;;;29.67;23.33;;;;;;;;5091775;27;45438;-70
2023/11/26 00:51:30;;;;;;;;;28.25;23.50;;;;;;;;5086776;27;47517;-69
2023/11/26 00:53:56;;;;;;;;;31.67;22.33;;;;;;;;5098426;27;45563;-69
2023/11/26 00:56:21;;;;;;;;;29.00;24.25;;;;;;;;5098451;27;45524;-69
2023/11/26 00:58:46;;;;;;;;;30.25;24.25;;;;;;;;5100143;27;45224;-71
2023/11/26 01:01:11;;;;;;;;;29.00;23.00;;;;;;;;5099540;27;46149;-69
2023/11/26 01:03:36;;;;;;;;;30.50;25.75;;;;;;;;5099808;27;45428;-69
2023/11/26 01:06:02;;;;;;;;;28.00;24.00;;;;;;;;5098350;27;45476;-70
2023/11/26 01:08:27;;;;;;;;;24.25;17.25;;;;;;;;5100554;27;45276;-72
2023/11/26 01:10:52;;;;;;;;;27.75;26.25;;;;;;;;5099595;27;45306;-69
2023/11/26 01:13:17;;;;;;;;;43.33;24.67;;;;;;;;5096235;27;45273;-70
2023/11/26 01:15:44;;;;;;;;;27.00;25.33;;;;;;;;5080889;27;45437;-73
2023/11/26 01:18:09;;;;;;;;;27.00;23.75;;;;;;;;5096278;27;45314;-69
2023/11/26 01:20:34;;;;;;;;;23.33;18.67;;;;;;;;5091023;27;45390;-70
2023/11/26 01:22:59;;;;;;;;;22.67;19.00;;;;;;;;5067095;28;45445;-69
2023/11/26 01:25:24;;;;;;;;;31.00;21.25;;;;;;;;5097145;27;45488;-69
2023/11/26 01:27:49;;;;;;;;;25.25;20.75;;;;;;;;5091369;27;45409;-72
2023/11/26 01:30:15;;;;;;;;;24.67;16.00;;;;;;;;5097266;27;46507;-69
2023/11/26 01:32:41;;;;;;;;;25.50;20.75;;;;;;;;5098335;27;45441;-69
2023/11/26 01:35:08;;;;;;;;;30.50;25.50;;;;;;;;5099775;27;45272;-72
2023/11/26 01:37:33;;;;;;;;;26.75;19.25;;;;;;;;5089912;27;45496;-69
2023/11/26 01:39:58;;;;;;;;;19.67;16.00;;;;;;;;5098933;27;46203;-70
2023/11/26 01:42:23;;;;;;;;;32.00;24.67;;;;;;;;5099471;27;45715;-72
2023/11/26 01:44:48;;;;;;;;;28.75;21.75;;;;;;;;5082598;27;45179;-71
2023/11/26 01:47:14;;;;;;;;;24.00;20.00;;;;;;;;5089539;27;45365;-71
2023/11/26 01:49:39;;;;;;;;;24.33;20.00;;;;;;;;5097504;27;45486;-70
2023/11/26 01:52:09;;;;;;;;;26.00;20.00;;;;;;;;5093598;27;45504;-69
2023/11/26 01:54:38;;;;;;;;;26.25;18.50;;;;;;;;5089486;27;45445;-71
2023/11/26 01:57:04;;;;;;;;;23.00;16.50;;;;;;;;5087109;27;45617;-71
2023/11/26 01:59:30;;;;;;;;;28.50;19.00;;;;;;;;5092937;27;46423;-70
2023/11/26 02:01:55;;;;;;;;;22.50;19.25;;;;;;;;5099019;27;45423;-72
2023/11/26 02:04:20;;;;;;;;;31.50;19.75;;;;;;;;5098397;27;45273;-71
2023/11/26 02:06:45;;;;;;;;;29.67;23.00;;;;;;;;5097847;27;45417;-72
2023/11/26 02:09:11;;;;;;;;;24.50;16.75;;;;;;;;5098395;27;48614;-71
2023/11/26 02:11:37;;;;;;;;;26.50;19.00;;;;;;;;5097501;27;45306;-70
2023/11/26 02:14:02;;;;;;;;;19.75;19.00;;;;;;;;5098686;27;45294;-73
2023/11/26 02:16:27;;;;;;;;;22.50;18.75;;;;;;;;5079586;27;45296;-69
2023/11/26 02:18:53;;;;;;;;;23.25;19.00;;;;;;;;5097902;27;46309;-71
2023/11/26 02:21:18;;;;;;;;;23.25;21.75;;;;;;;;5097474;27;45325;-72
2023/11/26 02:23:44;;;;;;;;;25.50;18.50;;;;;;;;5094436;27;45492;-72
2023/11/26 02:26:10;;;;;;;;;17.25;17.25;;;;;;;;5095953;27;45473;-71
2023/11/26 02:28:35;;;;;;;;;26.50;19.50;;;;;;;;5096554;27;45674;-72
2023/11/26 02:31:01;;;;;;;;;27.75;19.75;;;;;;;;5092789;27;45509;-71
2023/11/26 02:33:26;;;;;;;;;17.33;13.67;;;;;;;;5090355;27;46832;-69
2023/11/26 02:35:51;;;;;;;;;24.67;18.00;;;;;;;;5095370;27;45447;-72
2023/11/26 02:38:17;;;;;;;;;21.75;16.75;;;;;;;;5089005;27;46338;-69
2023/11/26 02:40:42;;;;;;;;;16.00;15.75;;;;;;;;5098508;27;45387;-70
2023/11/26 02:43:08;;;;;;;;;19.00;15.00;;;;;;;;5095885;27;45446;-71
2023/11/26 02:45:33;;;;;;;;;22.50;13.25;;;;;;;;5096469;27;45482;-73
2023/11/26 02:47:58;;;;;;;;;20.00;17.50;;;;;;;;5096621;27;46236;-70
2023/11/26 02:50:24;;;;;;;;;19.67;16.33;;;;;;;;5098796;27;45279;-69
2023/11/26 02:52:49;;;;;;;;;19.50;12.00;;;;;;;;5093356;27;46017;-69
2023/11/26 02:55:15;;;;;;;;;18.67;14.33;;;;;;;;5085509;27;45329;-68
2023/11/26 02:57:40;;;;;;;;;19.50;12.50;;;;;;;;5097869;27;45660;-69
2023/11/26 03:00:15;;;;;;;;;19.00;15.00;;;;;;;;5098565;27;45276;-69
2023/11/26 03:02:40;;;;;;;;;17.00;13.00;;;;;;;;5097805;27;45316;-69
2023/11/26 03:05:06;;;;;;;;;16.75;15.00;;;;;;;;5098954;27;45447;-69
2023/11/26 03:07:32;;;;;;;;;20.00;12.00;;;;;;;;5097539;27;47590;-70
2023/11/26 03:13:06;;;;;;;;;22.00;14.25;;;;;;;;5098092;27;45390;-72
2023/11/26 03:15:33;;;;;;;;;13.00;13.00;;;;;;;;5097120;27;45478;-70
2023/11/26 03:17:58;;;;;;;;;13.25;12.00;;;;;;;;5097449;27;47482;-69
2023/11/26 03:20:23;;;;;;;;;14.67;12.67;;;;;;;;5097686;27;45222;-70
2023/11/26 03:22:48;;;;;;;;;15.00;13.50;;;;;;;;5098595;27;45337;-69
2023/11/26 03:25:13;;;;;;;;;15.67;12.33;;;;;;;;5093431;27;45520;-70
2023/11/26 03:27:39;;;;;;;;;13.00;13.00;;;;;;;;5097947;27;45668;-69
2023/11/26 03:30:04;;;;;;;;;15.00;12.33;;;;;;;;5096903;27;45484;-71
2023/11/26 03:32:29;;;;;;;;;18.00;13.25;;;;;;;;5093706;27;45541;-69
2023/11/26 03:34:55;;;;;;;;;11.33;11.33;;;;;;;;5093732;27;45326;-69
2023/11/26 03:37:20;;;;;;;;;11.75;10.00;;;;;;;;5078841;27;46826;-72
2023/11/26 03:39:45;;;;;;;;;11.25;11.25;;;;;;;;5088711;27;45236;-70
2023/11/26 03:42:11;;;;;;;;;20.00;12.25;;;;;;;;5097254;27;45328;-69
2023/11/26 03:44:36;;;;;;;;;15.75;13.25;;;;;;;;5095775;27;45908;-70
2023/11/26 03:47:04;;;;;;;;;16.00;12.00;;;;;;;;5094737;27;45747;-69
2023/11/26 03:49:29;;;;;;;;;13.50;12.25;;;;;;;;5094731;27;45200;-71
2023/11/26 03:51:54;;;;;;;;;20.00;14.33;;;;;;;;5086494;27;45350;-71
2023/11/26 03:54:19;;;;;;;;;15.00;14.00;;;;;;;;5097708;27;46174;-72
2023/11/26 03:56:45;;;;;;;;;13.67;13.33;;;;;;;;5095134;27;45833;-70
2023/11/26 03:59:10;;;;;;;;;12.33;11.67;;;;;;;;5088314;27;45263;-72
2023/11/26 04:01:36;;;;;;;;;13.00;11.50;;;;;;;;5093375;27;45495;-70
2023/11/26 04:04:01;;;;;;;;;16.25;15.00;;;;;;;;5091859;27;45280;-70
2023/11/26 04:06:26;;;;;;;;;18.67;11.67;;;;;;;;5088894;27;46300;-69
2023/11/26 04:08:53;;;;;;;;;22.67;13.00;;;;;;;;5095411;27;45453;-70
2023/11/26 04:11:19;;;;;;;;;12.00;12.00;;;;;;;;5086061;27;45437;-69
2023/11/26 04:13:44;;;;;;;;;14.50;10.25;;;;;;;;5096672;27;45576;-69
2023/11/26 04:16:11;;;;;;;;;16.33;12.00;;;;;;;;5088388;27;45589;-70
2023/11/26 04:18:36;;;;;;;;;13.75;12.75;;;;;;;;5082292;27;45365;-72
2023/11/26 04:21:02;;;;;;;;;15.00;10.33;;;;;;;;5090050;27;45535;-69
2023/11/26 04:23:27;;;;;;;;;17.25;12.00;;;;;;;;5087042;27;45283;-70
2023/11/26 04:25:52;;;;;;;;;14.50;12.75;;;;;;;;5094307;27;45660;-69
2023/11/26 04:28:17;;;;;;;;;19.50;11.75;;;;;;;;5093138;27;45430;-69
2023/11/26 04:30:43;;;;;;;;;15.33;13.67;;;;;;;;5095513;27;45472;-69
2023/11/26 04:33:08;;;;;;;;;17.25;13.75;;;;;;;;5095679;27;45498;-72
2023/11/26 04:35:34;;;;;;;;;13.75;10.75;;;;;;;;5086297;27;45896;-69
2023/11/26 04:37:59;;;;;;;;;15.00;11.25;;;;;;;;5096293;27;45255;-69
2023/11/26 04:40:25;;;;;;;;;9.00;9.00;;;;;;;;5084883;27;45287;-71
2023/11/26 04:42:50;;;;;;;;;15.00;9.00;;;;;;;;5091843;27;45486;-70
2023/11/26 04:45:16;;;;;;;;;13.67;12.00;;;;;;;;5093884;27;46048;-69
2023/11/26 04:47:41;;;;;;;;;12.00;6.25;;;;;;;;5093145;27;45416;-70
2023/11/26 04:50:07;;;;;;;;;18.00;11.50;;;;;;;;5095542;27;45187;-73
2023/11/26 04:52:32;;;;;;;;;16.50;9.50;;;;;;;;5091697;27;45339;-72
2023/11/26 04:54:57;;;;;;;;;14.50;9.00;;;;;;;;5096267;27;45752;-73
2023/11/26 04:57:23;;;;;;;;;14.75;9.00;;;;;;;;5095442;27;45327;-69
2023/11/26 04:59:48;;;;;;;;;16.00;11.75;;;;;;;;5097179;27;45354;-68
2023/11/26 05:02:14;;;;;;;;;14.25;11.25;;;;;;;;5096401;27;45401;-69
2023/11/26 05:04:39;;;;;;;;;15.00;11.25;;;;;;;;5094522;27;47452;-69
2023/11/26 05:07:05;;;;;;;;;15.75;12.75;;;;;;;;5089370;27;45424;-72
2023/11/26 05:09:31;;;;;;;;;12.75;8.75;;;;;;;;5070185;28;45368;-71
2023/11/26 05:11:56;;;;;;;;;15.50;11.00;;;;;;;;5090100;27;45553;-69
2023/11/26 05:14:22;;;;;;;;;14.33;10.33;;;;;;;;5095514;27;45370;-72
2023/11/26 05:16:47;;;;;;;;;12.00;11.00;;;;;;;;5095356;27;45385;-69
2023/11/26 05:19:13;;;;;;;;;15.00;9.50;;;;;;;;5093794;27;45444;-71
2023/11/26 05:21:38;;;;;;;;;18.75;12.00;;;;;;;;5090311;27;45450;-70
2023/11/26 05:24:04;;;;;;;;;12.00;9.00;;;;;;;;5079546;27;46449;-71
2023/11/26 05:26:29;;;;;;;;;11.50;7.75;;;;;;;;5091353;27;45383;-69
2023/11/26 05:28:55;;;;;;;;;15.25;11.50;;;;;;;;5079428;27;45262;-69
2023/11/26 05:31:20;;;;;;;;;11.75;11.00;;;;;;;;5089102;27;45621;-69
2023/11/26 05:33:45;;;;;;;;;16.75;9.00;;;;;;;;5095595;27;46317;-69
2023/11/26 05:36:11;;;;;;;;;15.00;11.50;;;;;;;;5094343;27;45326;-71
2023/11/26 05:38:36;;;;;;;;;12.00;11.25;;;;;;;;5082060;27;45529;-69
2023/11/26 05:41:01;;;;;;;;;9.00;9.00;;;;;;;;5090905;27;45469;-69
2023/11/26 05:43:27;;;;;;;;;15.00;11.00;;;;;;;;5085711;27;45630;-71
2023/11/26 05:45:52;;;;;;;;;11.50;11.50;;;;;;;;5092010;27;45458;-70
2023/11/26 05:48:17;;;;;;;;;10.33;9.00;;;;;;;;5097728;27;45466;-73
2023/11/26 05:50:42;;;;;;;;;19.50;11.25;;;;;;;;5093569;27;45316;-73
2023/11/26 05:53:08;;;;;;;;;15.00;11.33;;;;;;;;5088917;27;45572;-69
2023/11/26 05:55:33;;;;;;;;;12.50;10.75;;;;;;;;5096847;27;45442;-68
2023/11/26 05:57:58;;;;;;;;;12.25;10.50;;;;;;;;5094920;27;45822;-69
2023/11/26 06:00:23;;;;;;;;;13.33;12.00;;;;;;;;5091495;27;45293;-72
2023/11/26 06:02:50;;;;;;;;;6.67;6.67;;;;;;;;5094919;27;45473;-71
2023/11/26 06:05:16;;;;;;;;;11.00;9.00;;;;;;;;5099009;27;45469;-69
2023/11/26 06:07:41;;;;;;;;;18.25;8.00;;;;;;;;5088883;27;45314;-72
2023/11/26 06:10:07;;;;;;;;;8.50;8.50;;;;;;;;5086155;27;45431;-70
2023/11/26 06:12:32;;;;;;;;;11.25;11.25;;;;;;;;5098225;27;45742;-70
2023/11/26 06:14:57;;;;;;;;;11.00;9.00;;;;;;;;5099223;27;45467;-68
2023/11/26 06:17:22;;;;;;;;;9.67;9.67;;;;;;;;5096527;27;45467;-72
2023/11/26 06:19:48;;;;;;;;;11.67;9.00;;;;;;;;5099403;27;45319;-69
2023/11/26 06:22:13;;;;;;;;;13.75;11.00;;;;;;;;5094404;27;46485;-69
2023/11/26 06:24:38;;;;;;;;;11.00;10.33;;;;;;;;5096718;27;46174;-68
2023/11/26 06:27:04;;;;;;;;;13.50;11.00;;;;;;;;5090294;27;45450;-69
2023/11/26 06:29:29;;;;;;;;;11.75;9.00;;;;;;;;5095698;27;45515;-70
2023/11/26 06:31:54;;;;;;;;;13.67;11.00;;;;;;;;5096061;27;46271;-69
2023/11/26 06:34:25;;;;;;;;;20.33;16.00;;;;;;;;5094236;27;45356;-70
2023/11/26 06:36:50;;;;;;;;;21.25;18.00;;;;;;;;5097178;27;45943;-72
2023/11/26 06:39:15;;;;;;;;;12.00;12.00;;;;;;;;5088898;27;45514;-71
2023/11/26 06:41:41;;;;;;;;;21.67;9.00;;;;;;;;5092546;27;45338;-69
2023/11/26 06:44:06;;;;;;;;;15.25;12.75;;;;;;;;5093603;27;45433;-70
2023/11/26 06:46:32;;;;;;;;;22.75;16.50;;;;;;;;5093320;27;45422;-70
2023/11/26 06:48:57;;;;;;;;;15.75;12.75;;;;;;;;5097755;27;45530;-69
2023/11/26 06:51:22;;;;;;;;;19.00;15.33;;;;;;;;5093652;27;46444;-72
2023/11/26 06:53:48;;;;;;;;;19.25;14.50;;;;;;;;5087009;27;45447;-73
2023/11/26 06:56:14;;;;;;;;;15.75;13.25;;;;;;;;5096765;27;45597;-70
2023/11/26 06:58:40;;;;;;;;;15.75;12.00;;;;;;;;5092273;27;45430;-72
2023/11/26 07:01:05;;;;;;;;;18.75;13.50;;;;;;;;5097726;27;45529;-71
2023/11/26 07:03:32;;;;;;;;;25.25;19.25;;;;;;;;5094822;27;45296;-69
2023/11/26 07:05:57;;;;;;;;;22.00;16.25;;;;;;;;5097447;27;45270;-69
2023/11/26 07:08:22;;;;;;;;;18.00;18.00;;;;;;;;5091895;27;45481;-70
2023/11/26 07:10:47;;;;;;;;;24.67;20.00;;;;;;;;5097365;27;45853;-70
2023/11/26 07:13:15;;;;;;;;;22.67;16.67;;;;;;;;5085463;27;45416;-72
2023/11/26 07:15:40;;;;;;;;;17.75;17.75;;;;;;;;5087639;27;45458;-70
2023/11/26 07:18:05;;;;;;;;;15.00;15.00;;;;;;;;5092307;27;45553;-69
2023/11/26 07:20:31;;;;;;;;;19.75;16.75;;;;;;;;5090962;27;46572;-69
2023/11/26 07:22:56;;;;;;;;;19.00;16.25;;;;;;;;5099798;27;45358;-69
2023/11/26 07:25:21;;;;;;;;;30.00;19.00;;;;;;;;5078711;27;45438;-69
2023/11/26 07:27:46;;;;;;;;;26.00;20.67;;;;;;;;5095527;27;45658;-69
2023/11/26 07:30:12;;;;;;;;;29.33;22.00;;;;;;;;5096305;27;45850;-70
2023/11/26 07:32:41;;;;;;;;;31.00;23.00;;;;;;;;5089042;27;45580;-69
2023/11/26 07:35:07;;;;;;;;;27.00;18.25;;;;;;;;5096985;27;45443;-69
2023/11/26 07:37:32;;;;;;;;;22.25;20.75;;;;;;;;5094603;27;45404;-70
2023/11/26 07:39:58;;;;;;;;;22.67;20.33;;;;;;;;5093061;27;46677;-68
2023/11/26 07:42:23;;;;;;;;;26.33;22.00;;;;;;;;5075518;27;45495;-69
2023/11/26 07:44:48;;;;;;;;;30.00;19.67;;;;;;;;5092554;27;45445;-68
2023/11/26 07:47:13;;;;;;;;;29.25;20.00;;;;;;;;5093424;27;45472;-70
2023/11/26 07:49:38;;;;;;;;;25.00;19.00;;;;;;;;5084843;27;45892;-69
2023/11/26 07:52:04;;;;;;;;;23.33;18.67;;;;;;;;5094294;27;45245;-69
2023/11/26 07:54:30;;;;;;;;;23.75;19.00;;;;;;;;5089536;27;45625;-69
2023/11/26 07:56:56;;;;;;;;;29.00;22.00;;;;;;;;5089548;27;45394;-71
2023/11/26 07:59:21;;;;;;;;;26.00;23.67;;;;;;;;5094933;27;45770;-71
2023/11/26 08:01:49;;;;;;;;;22.00;22.00;;;;;;;;5095021;27;45334;-68
2023/11/26 08:04:14;;;;;;;;;24.75;21.75;;;;;;;;5096151;27;45378;-69
2023/11/26 08:06:41;;;;;;;;;37.67;30.00;;;;;;;;5095098;27;45469;-68
2023/11/26 08:09:10;;;;;;;;;28.00;24.75;;;;;;;;5095071;27;46419;-71
2023/11/26 08:11:43;;;;;;;;;35.25;26.00;;;;;;;;5087855;27;45465;-69
2023/11/26 08:14:12;;;;;;;;;26.50;23.25;;;;;;;;5094156;27;45468;-68
2023/11/26 08:16:37;;;;;;;;;31.25;25.50;;;;;;;;5093467;27;45379;-68
2023/11/26 08:19:07;;;;;;;;;29.50;22.50;;;;;;;;5095752;27;46390;-68
2023/11/26 08:21:34;;;;;;;;;34.00;26.25;;;;;;;;5096395;27;45224;-68
2023/11/26 08:24:01;;;;;;;;;29.75;25.25;;;;;;;;5095886;27;45428;-68
2023/11/26 08:26:32;;;;;;;;;28.25;22.75;;;;;;;;5095281;27;45423;-68
2023/11/26 08:28:57;;;;;;;;;28.25;18.25;;;;;;;;5093723;27;46765;-68
2023/11/26 08:31:23;;;;;;;;;40.00;26.33;;;;;;;;5084936;27;45430;-69
2023/11/26 08:33:48;;;;;;;;;30.75;22.75;;;;;;;;5094648;27;45561;-68
2023/11/26 08:36:18;;;;;;;;;19.67;17.67;;;;;;;;5093778;27;45379;-68
2023/11/26 08:38:43;;;;;;;;;36.00;28.25;;;;;;;;5095563;27;46147;-68
2023/11/26 08:41:20;;;;;;;;;29.00;28.00;;;;;;;;5149386;22;45483;31
2023/11/26 08:43:46;;;;;;;;;30.25;26.50;;;;;;;;4976264;28;45921;-68
2023/11/26 08:46:13;;;;;;;;;30.25;23.50;;;;;;;;4975559;28;45536;-70
2023/11/26 08:48:38;;;;;;;;;25.00;21.00;;;;;;;;4949720;28;46889;-70
2023/11/26 08:51:04;;;;;;;;;22.33;20.00;;;;;;;;4969859;28;45451;-71
2023/11/26 08:53:29;;;;;;;;;18.25;16.50;;;;;;;;4973093;28;45535;-70
2023/11/26 08:55:56;;;;;;;;;20.50;16.75;;;;;;;;4976117;28;45504;-70
2023/11/26 08:58:21;;;;;;;;;19.75;16.00;;;;;;;;4975026;28;46492;-69
2023/11/26 09:00:46;;;;;;;;;21.75;15.50;;;;;;;;4978984;28;45531;-70
2023/11/26 09:03:12;;;;;;;;;1.00;0.00;;;;;;;;4976852;28;45543;-69
2023/11/26 09:05:37;;;;;;;;;18.33;11.67;;;;;;;;4977291;28;45787;-68
2023/11/26 09:08:02;;;;;;;;;17.50;13.25;;;;;;;;4980347;28;45958;-69
2023/11/26 09:10:28;;;;;;;;;14.75;11.25;;;;;;;;4980356;28;45749;-68
2023/11/26 09:12:53;;;;;;;;;20.25;13.25;;;;;;;;4975965;28;45514;-68
2023/11/26 09:15:19;;;;;;;;;18.00;13.67;;;;;;;;4979189;28;45670;-69
2023/11/26 09:17:44;;;;;;;;;19.67;14.67;;;;;;;;4978551;28;45567;-69
2023/11/26 09:20:12;;;;;;;;;15.00;13.00;;;;;;;;4981989;28;45401;-69
2023/11/26 09:22:38;;;;;;;;;13.00;13.00;;;;;;;;4979393;28;45641;-69
2023/11/26 09:25:04;;;;;;;;;21.50;15.25;;;;;;;;4986567;28;45575;-69
2023/11/26 09:27:29;;;;;;;;;13.00;13.00;;;;;;;;4984925;28;46466;-69
2023/11/26 09:29:54;;;;;;;;;18.67;14.00;;;;;;;;4979382;28;45428;-69
2023/11/26 09:32:20;;;;;;;;;22.33;13.00;;;;;;;;4983570;28;45428;-69
2023/11/26 09:34:45;;;;;;;;;18.50;13.00;;;;;;;;4978543;28;45617;-69
2023/11/26 09:37:10;;;;;;;;;17.33;13.00;;;;;;;;4977492;28;46620;-70
2023/11/26 09:39:36;;;;;;;;;18.33;15.00;;;;;;;;4978944;28;45334;-70
2023/11/26 09:42:01;;;;;;;;;16.50;13.25;;;;;;;;4987834;28;45405;-69
2023/11/26 09:44:27;;;;;;;;;17.50;14.25;;;;;;;;4980690;28;45574;-69
2023/11/26 09:46:52;;;;;;;;;23.50;19.25;;;;;;;;4982181;28;46490;-69
2023/11/26 09:49:18;;;;;;;;;15.00;13.50;;;;;;;;4985141;28;45373;-69
2023/11/26 09:51:43;;;;;;;;;18.00;11.00;;;;;;;;4985822;28;45512;-69
2023/11/26 09:54:10;;;;;;;;;23.25;16.75;;;;;;;;4981872;28;45511;-69
2023/11/26 09:56:35;;;;;;;;;18.00;13.25;;;;;;;;4980529;28;46571;-69
2023/11/26 09:59:03;;;;;;;;;23.00;18.50;;;;;;;;4978421;28;45484;-69
2023/11/26 10:01:28;;;;;;;;;16.25;15.00;;;;;;;;4980976;28;45356;-69
2023/11/26 10:03:57;;;;;;;;;19.00;15.00;;;;;;;;4981753;28;45396;-69
2023/11/26 10:06:22;;;;;;;;;24.25;21.25;;;;;;;;4981150;28;45465;-69
2023/11/26 10:08:47;;;;;;;;;22.50;19.75;;;;;;;;4977742;28;45527;-68
2023/11/26 10:11:22;;;;;;;;;15.50;14.00;;;;;;;;4984294;28;45553;-69
2023/11/26 10:13:48;;;;;;;;;19.75;18.00;;;;;;;;4977933;28;45446;-69
2023/11/26 10:16:26;;;;;;;;;25.00;19.25;;;;;;;;4977263;28;47192;-69
2023/11/26 10:18:51;;;;;;;;;22.00;17.75;;;;;;;;4983462;28;45480;-69
2023/11/26 10:21:16;;;;;;;;;17.00;14.00;;;;;;;;4978015;28;45405;-70
2023/11/26 10:23:44;;;;;;;;;17.25;12.25;;;;;;;;4977182;28;45436;-70
2023/11/26 10:26:23;;;;;;;;;12.50;12.50;;;;;;;;4974382;28;46741;-71
2023/11/26 10:29:08;;;;;;;;;12.50;11.50;;;;;;;;4975852;28;45582;-69
2023/11/26 10:31:37;;;;;;;;;14.50;12.00;;;;;;;;4974646;28;45420;-69
2023/11/26 10:34:08;;;;;;;;;17.75;14.25;;;;;;;;4976581;28;45754;-69
2023/11/26 10:36:34;;;;;;;;;16.00;11.00;;;;;;;;4978244;28;45957;-69
2023/11/26 10:39:04;;;;;;;;;31.50;30.75;;;;;;;;4979611;28;45226;-68
2023/11/26 10:41:33;;;;;;;;;154.50;110.00;;;;;;;;4980072;28;45533;-68
2023/11/26 10:43:58;;;;;;;;;41.25;34.75;;;;;;;;4997155;28;45540;-70
2023/11/26 10:46:25;;;;;;;;;16.00;12.25;;;;;;;;4997117;28;45742;-69
2023/11/26 10:48:54;;;;;;;;;25.75;19.00;;;;;;;;4997393;28;45446;-68
2023/11/26 10:51:20;;;;;;;;;64.25;51.50;;;;;;;;4997199;28;45532;-69
2023/11/26 10:53:46;;;;;;;;;41.00;31.00;;;;;;;;4997456;28;45310;-68
2023/11/26 10:56:12;;;;;;;;;19.00;19.00;;;;;;;;4996518;28;46032;-68
2023/11/26 10:58:39;;;;;;;;;18.00;16.00;;;;;;;;4997094;28;45436;-68
2023/11/26 11:01:05;;;;;;;;;27.00;22.25;;;;;;;;4997391;28;45464;-68
2023/11/26 11:03:31;;;;;;;;;50.00;41.25;;;;;;;;5000412;28;45416;-69
2023/11/26 11:05:58;;;;;;;;;65.75;50.75;;;;;;;;4997089;28;47640;-69
2023/11/26 11:08:24;;;;;;;;;53.75;40.50;;;;;;;;4996946;28;45615;-69
2023/11/26 11:11:04;;;;;;;;;56.50;44.50;;;;;;;;4997477;28;45510;-69
2023/11/26 11:13:31;;;;;;;;;22.75;17.00;;;;;;;;4995991;28;45380;-68
2023/11/26 11:15:56;;;;;;;;;30.00;20.00;;;;;;;;4996752;28;46389;-69
2023/11/26 11:18:27;;;;;;;;;15.00;11.50;;;;;;;;4997406;28;45261;-69
2023/11/26 11:21:01;;;;;;;;;25.00;21.25;;;;;;;;4994122;28;45462;-69
2023/11/26 11:23:39;;;;;;;;;12.00;8.00;;;;;;;;4997441;28;45636;-69
2023/11/26 11:26:05;;;;;;;;;26.25;22.00;;;;;;;;4996571;28;47515;-69
2023/11/26 11:28:42;;;;;;;;;14.00;9.50;;;;;;;;4997191;28;45413;-69
2023/11/26 11:31:08;;;;;;;;;71.75;54.00;;;;;;;;4996405;28;45344;-69
2023/11/26 11:33:33;;;;;;;;;34.25;32.25;;;;;;;;4996726;28;45456;-70
2023/11/26 11:35:58;;;;;;;;;19.00;16.75;;;;;;;;4995291;28;45858;-69
2023/11/26 11:38:26;;;;;;;;;61.75;46.75;;;;;;;;4997035;28;45333;-69
2023/11/26 11:40:58;;;;;;;;;47.50;38.75;;;;;;;;4996766;28;45415;-69
2023/11/26 11:43:23;;;;;;;;;44.75;38.00;;;;;;;;4996949;28;45377;-69
2023/11/26 11:45:48;;;;;;;;;52.75;40.00;;;;;;;;4996588;28;46354;-69
2023/11/26 11:48:32;;;;;;;;;43.25;32.75;;;;;;;;4996499;28;45231;-71
2023/11/26 11:50:57;;;;;;;;;14.25;12.25;;;;;;;;4993772;28;45412;-69
2023/11/26 11:53:23;;;;;;;;;18.50;15.50;;;;;;;;4996756;28;45456;-71
2023/11/26 11:55:57;;;;;;;;;25.75;21.25;;;;;;;;4996317;28;46306;-69
2023/11/26 11:58:22;;;;;;;;;31.25;25.25;;;;;;;;4995956;28;45423;-69
2023/11/26 12:00:48;;;;;;;;;9.00;8.75;;;;;;;;4997970;28;45317;-71
2023/11/26 12:03:15;;;;;;;;;30.50;27.75;;;;;;;;4998929;28;45356;-70
2023/11/26 12:05:40;;;;;;;;;22.25;18.00;;;;;;;;4996034;28;45725;-69
2023/11/26 12:08:11;;;;;;;;;23.67;17.00;;;;;;;;4996045;28;45488;-71
2023/11/26 12:10:36;;;;;;;;;17.50;15.50;;;;;;;;4995985;28;45361;-69
2023/11/26 12:13:02;;;;;;;;;38.25;28.00;;;;;;;;4995680;28;45592;-70
2023/11/26 12:15:30;;;;;;;;;25.00;23.50;;;;;;;;4996177;28;46619;-69
2023/11/26 12:17:56;;;;;;;;;8.00;8.00;;;;;;;;4994737;28;45393;-69
2023/11/26 12:20:22;;;;;;;;;28.25;20.25;;;;;;;;4996073;28;45399;-71
2023/11/26 12:22:48;;;;;;;;;37.25;31.50;;;;;;;;4995216;28;45476;-71
2023/11/26 12:25:21;;;;;;;;;7.75;7.75;;;;;;;;4996575;28;46297;-70
2023/11/26 12:27:46;;;;;;;;;38.25;31.75;;;;;;;;5001201;28;45405;-69
2023/11/26 12:30:13;;;;;;;;;6.25;5.25;;;;;;;;4997563;28;45276;-72
2023/11/26 12:32:40;;;;;;;;;13.00;8.25;;;;;;;;4995769;28;46266;-69
2023/11/26 12:35:10;;;;;;;;;20.75;14.00;;;;;;;;4995328;28;46110;-71
2023/11/26 12:37:35;;;;;;;;;8.50;7.50;;;;;;;;4989624;28;45456;-70
2023/11/26 12:40:01;;;;;;;;;13.25;9.00;;;;;;;;4995190;28;45441;-70
2023/11/26 12:42:26;;;;;;;;;8.50;7.25;;;;;;;;4996263;28;45556;-69
2023/11/26 12:44:52;;;;;;;;;7.00;7.00;;;;;;;;4995088;28;47303;-71
2023/11/26 12:47:17;;;;;;;;;28.75;26.75;;;;;;;;4996464;28;45291;-71
2023/11/26 12:49:42;;;;;;;;;23.75;18.25;;;;;;;;4999448;28;45321;-71
2023/11/26 12:52:08;;;;;;;;;6.50;6.00;;;;;;;;4999439;28;46393;-70
2023/11/26 12:54:34;;;;;;;;;11.25;7.00;;;;;;;;4999033;28;45719;-70
2023/11/26 12:56:59;;;;;;;;;15.75;11.00;;;;;;;;4998591;28;45397;-69
2023/11/26 12:59:24;;;;;;;;;9.75;9.00;;;;;;;;4999816;28;45322;-69
2023/11/26 13:01:50;;;;;;;;;15.00;10.25;;;;;;;;4999283;28;45408;-69
2023/11/26 13:04:15;;;;;;;;;7.25;6.25;;;;;;;;5001858;28;46496;-69
2023/11/26 13:06:51;;;;;;;;;7.00;7.00;;;;;;;;4999186;28;45455;-69
2023/11/26 13:09:19;;;;;;;;;7.00;6.00;;;;;;;;4999151;28;45579;-69
2023/11/26 13:11:44;;;;;;;;;7.00;7.00;;;;;;;;4994915;28;45683;-69
2023/11/26 13:14:11;;;;;;;;;23.75;20.25;;;;;;;;4998159;28;46161;-69
2023/11/26 13:16:37;;;;;;;;;7.75;7.00;;;;;;;;4998915;28;45376;-69
2023/11/26 13:19:03;;;;;;;;;8.00;6.25;;;;;;;;4998699;28;45609;-71
2023/11/26 13:21:29;;;;;;;;;20.75;14.25;;;;;;;;4999254;28;45297;-70
2023/11/26 13:23:55;;;;;;;;;7.50;7.50;;;;;;;;4998056;28;46650;-70
2023/11/26 13:26:20;;;;;;;;;5.00;5.00;;;;;;;;4998876;28;45585;-68
2023/11/26 13:28:45;;;;;;;;;10.00;7.25;;;;;;;;4998670;28;45630;-68
2023/11/26 13:31:11;;;;;;;;;6.25;4.00;;;;;;;;5000676;28;45503;-69
2023/11/26 13:33:36;;;;;;;;;8.00;7.00;;;;;;;;4980293;28;46472;-71
2023/11/26 13:36:02;;;;;;;;;9.50;7.00;;;;;;;;4998995;28;45350;-68
2023/11/26 13:38:27;;;;;;;;;3.00;3.00;;;;;;;;4997857;28;45847;-69
2023/11/26 13:40:53;;;;;;;;;7.00;4.00;;;;;;;;4998863;28;45676;-68
2023/11/26 13:43:20;;;;;;;;;5.25;3.00;;;;;;;;4998018;28;46688;-68
2023/11/26 13:45:46;;;;;;;;;6.75;3.00;;;;;;;;4998594;28;45427;-69
2023/11/26 13:48:11;;;;;;;;;3.25;3.25;;;;;;;;4998377;28;45452;-71
2023/11/26 13:50:37;;;;;;;;;6.50;3.25;;;;;;;;4998572;28;45427;-70
2023/11/26 13:53:04;;;;;;;;;9.25;5.50;;;;;;;;4998009;28;45793;-71
2023/11/26 13:55:30;;;;;;;;;6.00;6.00;;;;;;;;4997835;28;45475;-71
2023/11/26 13:57:56;;;;;;;;;43.25;30.25;;;;;;;;4998239;28;45221;-68
2023/11/26 14:00:22;;;;;;;;;17.25;13.75;;;;;;;;4997810;28;45404;-68
2023/11/26 14:02:56;;;;;;;;;90.75;71.25;;;;;;;;4999229;28;45596;-67
2023/11/26 14:05:22;;;;;;;;;13.00;8.00;;;;;;;;4993010;28;45412;-69
2023/11/26 14:07:48;;;;;;;;;8.00;6.25;;;;;;;;4984851;28;45267;-69
2023/11/26 14:10:18;;;;;;;;;8.25;7.00;;;;;;;;4997734;28;45626;-68
2023/11/26 14:12:44;;;;;;;;;14.25;13.25;;;;;;;;4997791;28;46674;-70
2023/11/26 14:15:12;;;;;;;;;11.75;11.75;;;;;;;;4997948;28;45375;-69
2023/11/26 14:17:40;;;;;;;;;3.75;3.75;;;;;;;;4998070;28;45294;-70